sensor_id;sensor_type;location;lat;lon;timestamp;P1;durP1;ratioP1;P2;durP2;ratioP2
19038;SDS011;9652;49.014;12.052;2022-08-11T00:02:28;2.10;;;1.90;;
19038;SDS011;9652;49.014;12.052;2022-08-11T00:05:03;2.70;;;2.27;;
19038;SDS011;9652;49.014;12.052;2022-08-11T00:07:34;2.00;;;1.73;;
19038;SDS011;9652;49.014;12.052;2022-08-11T00:10:10;2.20;;;2.00;;
19038;SDS011;9652;49.014;12.052;2022-08-11T00:12:40;2.83;;;2.30;;
19038;SDS011;9652;49.014;12.052;2022-08-11T00:15:09;2.73;;;2.37;;
19038;SDS011;9652;49.014;12.052;2022-08-11T00:17:38;2.27;;;2.07;;
19038;SDS011;9652;49.014;12.052;2022-08-11T00:20:09;2.30;;;2.10;;
19038;SDS011;9652;49.014;12.052;2022-08-11T00:22:41;1.90;;;1.80;;
19038;SDS011;9652;49.014;12.052;2022-08-11T00:25:12;3.50;;;2.00;;
19038;SDS011;9652;49.014;12.052;2022-08-11T00:27:43;3.40;;;1.80;;
19038;SDS011;9652;49.014;12.052;2022-08-11T00:30:13;2.00;;;1.80;;
19038;SDS011;9652;49.014;12.052;2022-08-11T00:32:42;1.87;;;1.77;;
19038;SDS011;9652;49.014;12.052;2022-08-11T00:35:22;2.40;;;2.07;;
19038;SDS011;9652;49.014;12.052;2022-08-11T00:37:55;2.27;;;2.03;;
19038;SDS011;9652;49.014;12.052;2022-08-11T00:40:26;2.03;;;1.83;;
19038;SDS011;9652;49.014;12.052;2022-08-11T00:43:06;2.30;;;2.10;;
19038;SDS011;9652;49.014;12.052;2022-08-11T00:45:59;1.90;;;1.70;;
19038;SDS011;9652;49.014;12.052;2022-08-11T00:48:44;6.00;;;2.03;;
19038;SDS011;9652;49.014;12.052;2022-08-11T00:51:39;3.00;;;1.90;;
19038;SDS011;9652;49.014;12.052;2022-08-11T00:54:26;4.10;;;1.87;;
19038;SDS011;9652;49.014;12.052;2022-08-11T01:01:05;2.07;;;1.77;;
19038;SDS011;9652;49.014;12.052;2022-08-11T01:03:47;2.50;;;2.07;;
19038;SDS011;9652;49.014;12.052;2022-08-11T01:06:49;2.17;;;1.97;;
19038;SDS011;9652;49.014;12.052;2022-08-11T01:13:13;3.03;;;2.00;;
19038;SDS011;9652;49.014;12.052;2022-08-11T01:16:04;3.20;;;2.00;;
19038;SDS011;9652;49.014;12.052;2022-08-11T01:19:28;2.30;;;1.90;;
19038;SDS011;9652;49.014;12.052;2022-08-11T01:22:41;3.50;;;2.10;;
19038;SDS011;9652;49.014;12.052;2022-08-11T01:29:15;2.10;;;1.90;;
19038;SDS011;9652;49.014;12.052;2022-08-11T01:36:06;2.13;;;1.87;;
19038;SDS011;9652;49.014;12.052;2022-08-11T01:39:40;2.13;;;1.93;;
19038;SDS011;9652;49.014;12.052;2022-08-11T01:47:01;2.20;;;2.00;;
19038;SDS011;9652;49.014;12.052;2022-08-11T01:49:59;2.53;;;1.77;;
19038;SDS011;9652;49.014;12.052;2022-08-11T01:52:45;2.43;;;2.23;;
19038;SDS011;9652;49.014;12.052;2022-08-11T01:55:31;2.60;;;2.13;;
19038;SDS011;9652;49.014;12.052;2022-08-11T01:58:12;2.23;;;1.90;;
19038;SDS011;9652;49.014;12.052;2022-08-11T02:00:52;2.20;;;2.00;;
19038;SDS011;9652;49.014;12.052;2022-08-11T02:03:33;5.33;;;2.30;;
19038;SDS011;9652;49.014;12.052;2022-08-11T02:06:13;2.90;;;2.20;;
19038;SDS011;9652;49.014;12.052;2022-08-11T02:09:10;2.30;;;2.20;;
19038;SDS011;9652;49.014;12.052;2022-08-11T02:11:51;2.37;;;2.17;;
19038;SDS011;9652;49.014;12.052;2022-08-11T02:14:28;3.50;;;2.43;;
19038;SDS011;9652;49.014;12.052;2022-08-11T02:17:08;2.90;;;2.53;;
19038;SDS011;9652;49.014;12.052;2022-08-11T02:19:44;2.00;;;1.90;;
19038;SDS011;9652;49.014;12.052;2022-08-11T02:22:40;3.83;;;2.30;;
19038;SDS011;9652;49.014;12.052;2022-08-11T02:25:37;4.47;;;2.20;;
19038;SDS011;9652;49.014;12.052;2022-08-11T02:28:17;5.43;;;2.73;;
19038;SDS011;9652;49.014;12.052;2022-08-11T02:30:57;4.20;;;2.30;;
19038;SDS011;9652;49.014;12.052;2022-08-11T02:33:50;2.67;;;2.10;;
19038;SDS011;9652;49.014;12.052;2022-08-11T02:36:37;2.30;;;2.10;;
19038;SDS011;9652;49.014;12.052;2022-08-11T02:39:17;2.03;;;1.87;;
19038;SDS011;9652;49.014;12.052;2022-08-11T02:41:55;3.87;;;2.20;;
19038;SDS011;9652;49.014;12.052;2022-08-11T02:45:04;2.40;;;2.20;;
19038;SDS011;9652;49.014;12.052;2022-08-11T02:47:54;2.77;;;2.37;;
19038;SDS011;9652;49.014;12.052;2022-08-11T02:50:50;2.33;;;2.13;;
19038;SDS011;9652;49.014;12.052;2022-08-11T02:53:36;2.60;;;2.40;;
19038;SDS011;9652;49.014;12.052;2022-08-11T02:56:16;2.50;;;2.30;;
19038;SDS011;9652;49.014;12.052;2022-08-11T02:59:05;2.70;;;2.50;;
19038;SDS011;9652;49.014;12.052;2022-08-11T03:02:04;2.43;;;2.23;;
19038;SDS011;9652;49.014;12.052;2022-08-11T03:04:44;2.17;;;2.00;;
19038;SDS011;9652;49.014;12.052;2022-08-11T03:07:30;2.50;;;2.30;;
19038;SDS011;9652;49.014;12.052;2022-08-11T03:10:07;3.00;;;2.27;;
19038;SDS011;9652;49.014;12.052;2022-08-11T03:12:48;2.43;;;2.10;;
19038;SDS011;9652;49.014;12.052;2022-08-11T03:15:47;3.80;;;2.47;;
19038;SDS011;9652;49.014;12.052;2022-08-11T03:19:02;3.00;;;2.30;;
19038;SDS011;9652;49.014;12.052;2022-08-11T03:21:40;3.30;;;2.27;;
19038;SDS011;9652;49.014;12.052;2022-08-11T03:24:20;2.60;;;2.40;;
19038;SDS011;9652;49.014;12.052;2022-08-11T03:27:01;2.17;;;2.07;;
19038;SDS011;9652;49.014;12.052;2022-08-11T03:29:36;2.87;;;2.20;;
19038;SDS011;9652;49.014;12.052;2022-08-11T03:32:20;3.23;;;2.07;;
19038;SDS011;9652;49.014;12.052;2022-08-11T03:34:55;2.63;;;2.43;;
19038;SDS011;9652;49.014;12.052;2022-08-11T03:37:28;2.83;;;2.60;;
19038;SDS011;9652;49.014;12.052;2022-08-11T03:40:26;2.70;;;2.50;;
19038;SDS011;9652;49.014;12.052;2022-08-11T03:43:35;2.30;;;2.10;;
19038;SDS011;9652;49.014;12.052;2022-08-11T03:46:23;2.77;;;2.30;;
19038;SDS011;9652;49.014;12.052;2022-08-11T03:49:14;2.33;;;2.13;;
19038;SDS011;9652;49.014;12.052;2022-08-11T03:52:04;3.73;;;2.50;;
19038;SDS011;9652;49.014;12.052;2022-08-11T03:54:44;2.57;;;2.37;;
19038;SDS011;9652;49.014;12.052;2022-08-11T04:04:53;2.77;;;2.50;;
19038;SDS011;9652;49.014;12.052;2022-08-11T04:08:43;5.90;;;2.47;;
19038;SDS011;9652;49.014;12.052;2022-08-11T04:12:11;2.40;;;2.20;;
19038;SDS011;9652;49.014;12.052;2022-08-11T04:22:00;3.10;;;2.30;;
19038;SDS011;9652;49.014;12.052;2022-08-11T04:25:20;2.60;;;2.40;;
19038;SDS011;9652;49.014;12.052;2022-08-11T04:31:16;5.63;;;2.40;;
19038;SDS011;9652;49.014;12.052;2022-08-11T04:34:04;6.10;;;2.70;;
19038;SDS011;9652;49.014;12.052;2022-08-11T04:41:11;2.03;;;1.93;;
19038;SDS011;9652;49.014;12.052;2022-08-11T04:48:05;4.30;;;2.70;;
19038;SDS011;9652;49.014;12.052;2022-08-11T04:51:25;2.30;;;2.10;;
19038;SDS011;9652;49.014;12.052;2022-08-11T04:54:38;2.73;;;2.53;;
19038;SDS011;9652;49.014;12.052;2022-08-11T04:57:40;4.17;;;2.57;;
19038;SDS011;9652;49.014;12.052;2022-08-11T05:00:39;4.33;;;2.27;;
19038;SDS011;9652;49.014;12.052;2022-08-11T05:03:45;2.37;;;2.13;;
19038;SDS011;9652;49.014;12.052;2022-08-11T05:07:08;4.10;;;2.60;;
19038;SDS011;9652;49.014;12.052;2022-08-11T05:10:20;2.03;;;1.93;;
19038;SDS011;9652;49.014;12.052;2022-08-11T05:13:09;9.87;;;2.30;;
19038;SDS011;9652;49.014;12.052;2022-08-11T05:16:09;2.50;;;2.30;;
19038;SDS011;9652;49.014;12.052;2022-08-11T05:18:56;2.70;;;2.50;;
19038;SDS011;9652;49.014;12.052;2022-08-11T05:21:44;7.03;;;2.53;;
19038;SDS011;9652;49.014;12.052;2022-08-11T05:24:39;7.70;;;2.83;;
19038;SDS011;9652;49.014;12.052;2022-08-11T05:27:31;5.77;;;2.97;;
19038;SDS011;9652;49.014;12.052;2022-08-11T05:30:24;2.47;;;2.27;;
19038;SDS011;9652;49.014;12.052;2022-08-11T05:33:13;3.77;;;2.33;;
19038;SDS011;9652;49.014;12.052;2022-08-11T05:36:07;2.27;;;2.07;;
19038;SDS011;9652;49.014;12.052;2022-08-11T05:38:48;5.80;;;2.57;;
19038;SDS011;9652;49.014;12.052;2022-08-11T05:41:40;9.07;;;2.77;;
19038;SDS011;9652;49.014;12.052;2022-08-11T05:44:27;2.73;;;2.27;;
19038;SDS011;9652;49.014;12.052;2022-08-11T05:47:20;5.43;;;2.47;;
19038;SDS011;9652;49.014;12.052;2022-08-11T05:50:08;5.13;;;2.60;;
19038;SDS011;9652;49.014;12.052;2022-08-11T05:52:54;2.80;;;2.10;;
19038;SDS011;9652;49.014;12.052;2022-08-11T05:55:40;2.43;;;2.23;;
19038;SDS011;9652;49.014;12.052;2022-08-11T05:58:30;4.73;;;2.50;;
19038;SDS011;9652;49.014;12.052;2022-08-11T06:01:01;3.30;;;2.50;;
19038;SDS011;9652;49.014;12.052;2022-08-11T06:03:30;2.57;;;2.37;;
19038;SDS011;9652;49.014;12.052;2022-08-11T06:06:20;3.10;;;2.20;;
19038;SDS011;9652;49.014;12.052;2022-08-11T06:08:48;3.23;;;2.40;;
19038;SDS011;9652;49.014;12.052;2022-08-11T06:11:21;4.03;;;2.20;;
19038;SDS011;9652;49.014;12.052;2022-08-11T06:13:50;2.57;;;2.20;;
19038;SDS011;9652;49.014;12.052;2022-08-11T06:16:21;2.53;;;2.33;;
19038;SDS011;9652;49.014;12.052;2022-08-11T06:18:52;3.80;;;2.10;;
19038;SDS011;9652;49.014;12.052;2022-08-11T06:21:20;2.33;;;2.13;;
19038;SDS011;9652;49.014;12.052;2022-08-11T06:23:48;2.50;;;2.30;;
19038;SDS011;9652;49.014;12.052;2022-08-11T06:26:16;3.67;;;2.37;;
19038;SDS011;9652;49.014;12.052;2022-08-11T06:28:44;4.10;;;2.17;;
19038;SDS011;9652;49.014;12.052;2022-08-11T06:31:16;3.53;;;2.33;;
19038;SDS011;9652;49.014;12.052;2022-08-11T06:33:54;2.47;;;2.03;;
19038;SDS011;9652;49.014;12.052;2022-08-11T06:36:31;4.93;;;2.37;;
19038;SDS011;9652;49.014;12.052;2022-08-11T06:39:08;3.20;;;2.27;;
19038;SDS011;9652;49.014;12.052;2022-08-11T06:41:49;4.03;;;1.90;;
19038;SDS011;9652;49.014;12.052;2022-08-11T06:44:32;2.87;;;2.37;;
19038;SDS011;9652;49.014;12.052;2022-08-11T06:47:09;2.83;;;2.20;;
19038;SDS011;9652;49.014;12.052;2022-08-11T06:49:41;4.47;;;1.70;;
19038;SDS011;9652;49.014;12.052;2022-08-11T06:52:29;5.80;;;1.87;;
19038;SDS011;9652;49.014;12.052;2022-08-11T06:55:06;3.10;;;2.07;;
19038;SDS011;9652;49.014;12.052;2022-08-11T06:57:39;2.33;;;2.03;;
19038;SDS011;9652;49.014;12.052;2022-08-11T07:00:30;3.70;;;2.37;;
19038;SDS011;9652;49.014;12.052;2022-08-11T07:03:02;3.13;;;2.10;;
19038;SDS011;9652;49.014;12.052;2022-08-11T07:05:40;4.30;;;2.17;;
19038;SDS011;9652;49.014;12.052;2022-08-11T07:08:25;2.53;;;1.80;;
19038;SDS011;9652;49.014;12.052;2022-08-11T07:15:18;3.77;;;1.80;;
19038;SDS011;9652;49.014;12.052;2022-08-11T07:18:08;2.20;;;1.90;;
19038;SDS011;9652;49.014;12.052;2022-08-11T07:21:10;2.43;;;1.40;;
19038;SDS011;9652;49.014;12.052;2022-08-11T07:24:00;3.77;;;1.60;;
19038;SDS011;9652;49.014;12.052;2022-08-11T07:26:52;3.03;;;1.70;;
19038;SDS011;9652;49.014;12.052;2022-08-11T07:29:39;2.83;;;1.67;;
19038;SDS011;9652;49.014;12.052;2022-08-11T07:32:13;2.37;;;2.07;;
19038;SDS011;9652;49.014;12.052;2022-08-11T07:34:50;4.17;;;1.90;;
19038;SDS011;9652;49.014;12.052;2022-08-11T07:37:26;2.47;;;1.80;;
19038;SDS011;9652;49.014;12.052;2022-08-11T07:39:58;2.43;;;1.93;;
19038;SDS011;9652;49.014;12.052;2022-08-11T07:42:29;3.63;;;1.87;;
19038;SDS011;9652;49.014;12.052;2022-08-11T07:45:01;2.33;;;2.00;;
19038;SDS011;9652;49.014;12.052;2022-08-11T07:47:49;3.00;;;2.53;;
19038;SDS011;9652;49.014;12.052;2022-08-11T07:50:38;3.20;;;1.90;;
19038;SDS011;9652;49.014;12.052;2022-08-11T07:53:26;2.10;;;1.80;;
19038;SDS011;9652;49.014;12.052;2022-08-11T07:55:58;5.13;;;1.67;;
19038;SDS011;9652;49.014;12.052;2022-08-11T07:58:27;2.40;;;2.00;;
19038;SDS011;9652;49.014;12.052;2022-08-11T08:01:16;3.77;;;1.97;;
19038;SDS011;9652;49.014;12.052;2022-08-11T08:04:04;1.90;;;1.60;;
19038;SDS011;9652;49.014;12.052;2022-08-11T08:06:51;2.37;;;1.63;;
19038;SDS011;9652;49.014;12.052;2022-08-11T08:09:38;1.30;;;1.20;;
19038;SDS011;9652;49.014;12.052;2022-08-11T08:12:26;1.67;;;1.57;;
19038;SDS011;9652;49.014;12.052;2022-08-11T08:15:14;3.17;;;1.77;;
19038;SDS011;9652;49.014;12.052;2022-08-11T08:18:00;1.73;;;1.40;;
19038;SDS011;9652;49.014;12.052;2022-08-11T08:20:32;1.43;;;1.33;;
19038;SDS011;9652;49.014;12.052;2022-08-11T08:23:03;2.40;;;1.60;;
19038;SDS011;9652;49.014;12.052;2022-08-11T08:25:34;5.50;;;1.97;;
19038;SDS011;9652;49.014;12.052;2022-08-11T08:28:06;1.63;;;1.53;;
19038;SDS011;9652;49.014;12.052;2022-08-11T08:30:38;1.73;;;1.50;;
19038;SDS011;9652;49.014;12.052;2022-08-11T08:33:14;2.17;;;1.40;;
19038;SDS011;9652;49.014;12.052;2022-08-11T08:35:46;2.00;;;1.40;;
19038;SDS011;9652;49.014;12.052;2022-08-11T08:38:35;1.40;;;1.30;;
19038;SDS011;9652;49.014;12.052;2022-08-11T08:41:06;1.50;;;1.40;;
19038;SDS011;9652;49.014;12.052;2022-08-11T08:43:35;2.53;;;1.60;;
19038;SDS011;9652;49.014;12.052;2022-08-11T08:46:05;2.77;;;1.73;;
19038;SDS011;9652;49.014;12.052;2022-08-11T08:48:36;2.53;;;1.67;;
19038;SDS011;9652;49.014;12.052;2022-08-11T08:51:06;1.40;;;1.30;;
19038;SDS011;9652;49.014;12.052;2022-08-11T08:53:55;3.77;;;1.47;;
19038;SDS011;9652;49.014;12.052;2022-08-11T08:56:30;1.63;;;1.30;;
19038;SDS011;9652;49.014;12.052;2022-08-11T08:59:00;2.13;;;1.37;;
19038;SDS011;9652;49.014;12.052;2022-08-11T09:01:29;4.07;;;1.47;;
19038;SDS011;9652;49.014;12.052;2022-08-11T09:04:06;1.33;;;1.20;;
19038;SDS011;9652;49.014;12.052;2022-08-11T09:06:34;1.37;;;1.27;;
19038;SDS011;9652;49.014;12.052;2022-08-11T09:09:07;1.70;;;1.40;;
19038;SDS011;9652;49.014;12.052;2022-08-11T09:11:37;1.40;;;1.30;;
19038;SDS011;9652;49.014;12.052;2022-08-11T09:14:18;1.43;;;1.30;;
19038;SDS011;9652;49.014;12.052;2022-08-11T09:16:49;2.77;;;1.30;;
19038;SDS011;9652;49.014;12.052;2022-08-11T09:19:19;1.50;;;1.20;;
19038;SDS011;9652;49.014;12.052;2022-08-11T09:21:47;1.73;;;1.33;;
19038;SDS011;9652;49.014;12.052;2022-08-11T09:24:37;2.40;;;1.47;;
19038;SDS011;9652;49.014;12.052;2022-08-11T09:27:24;2.13;;;1.10;;
19038;SDS011;9652;49.014;12.052;2022-08-11T09:29:52;1.57;;;1.27;;
19038;SDS011;9652;49.014;12.052;2022-08-11T09:32:20;2.27;;;1.30;;
19038;SDS011;9652;49.014;12.052;2022-08-11T09:34:49;1.97;;;1.73;;
19038;SDS011;9652;49.014;12.052;2022-08-11T09:37:19;2.23;;;1.50;;
19038;SDS011;9652;49.014;12.052;2022-08-11T09:40:06;5.17;;;1.70;;
19038;SDS011;9652;49.014;12.052;2022-08-11T09:42:55;4.50;;;1.50;;
19038;SDS011;9652;49.014;12.052;2022-08-11T09:45:43;3.20;;;1.43;;
19038;SDS011;9652;49.014;12.052;2022-08-11T09:48:14;2.57;;;1.30;;
19038;SDS011;9652;49.014;12.052;2022-08-11T09:50:44;1.57;;;1.37;;
19038;SDS011;9652;49.014;12.052;2022-08-11T09:53:14;1.90;;;1.40;;
19038;SDS011;9652;49.014;12.052;2022-08-11T09:55:43;2.03;;;1.40;;
19038;SDS011;9652;49.014;12.052;2022-08-11T09:58:13;2.40;;;1.30;;
19038;SDS011;9652;49.014;12.052;2022-08-11T10:00:43;1.23;;;1.13;;
19038;SDS011;9652;49.014;12.052;2022-08-11T10:03:14;2.30;;;1.20;;
19038;SDS011;9652;49.014;12.052;2022-08-11T10:05:47;1.20;;;1.10;;
19038;SDS011;9652;49.014;12.052;2022-08-11T10:08:36;4.07;;;1.53;;
19038;SDS011;9652;49.014;12.052;2022-08-11T10:11:07;1.40;;;1.30;;
19038;SDS011;9652;49.014;12.052;2022-08-11T10:13:41;1.50;;;1.40;;
19038;SDS011;9652;49.014;12.052;2022-08-11T10:16:29;1.40;;;1.30;;
19038;SDS011;9652;49.014;12.052;2022-08-11T10:19:03;1.30;;;1.20;;
19038;SDS011;9652;49.014;12.052;2022-08-11T10:21:40;1.50;;;1.40;;
19038;SDS011;9652;49.014;12.052;2022-08-11T10:24:33;1.35;;;1.20;;
19038;SDS011;9652;49.014;12.052;2022-08-11T10:27:15;3.45;;;1.80;;
19038;SDS011;9652;49.014;12.052;2022-08-11T10:29:44;1.77;;;1.17;;
19038;SDS011;9652;49.014;12.052;2022-08-11T10:32:30;1.60;;;1.50;;
19038;SDS011;9652;49.014;12.052;2022-08-11T10:35:17;1.30;;;1.20;;
19038;SDS011;9652;49.014;12.052;2022-08-11T10:37:50;1.63;;;1.52;;
19038;SDS011;9652;49.014;12.052;2022-08-11T10:40:20;2.58;;;1.38;;
19038;SDS011;9652;49.014;12.052;2022-08-11T10:42:48;3.30;;;1.50;;
19038;SDS011;9652;49.014;12.052;2022-08-11T10:45:33;1.45;;;1.30;;
19038;SDS011;9652;49.014;12.052;2022-08-11T10:48:20;1.40;;;1.30;;
19038;SDS011;9652;49.014;12.052;2022-08-11T10:50:50;2.25;;;1.10;;
19038;SDS011;9652;49.014;12.052;2022-08-11T10:53:38;1.10;;;1.00;;
19038;SDS011;9652;49.014;12.052;2022-08-11T10:56:28;2.00;;;1.30;;
19038;SDS011;9652;49.014;12.052;2022-08-11T10:59:16;1.17;;;1.00;;
19038;SDS011;9652;49.014;12.052;2022-08-11T11:01:45;1.67;;;1.20;;
19038;SDS011;9652;49.014;12.052;2022-08-11T11:04:13;2.58;;;1.48;;
19038;SDS011;9652;49.014;12.052;2022-08-11T11:06:45;2.90;;;1.60;;
19038;SDS011;9652;49.014;12.052;2022-08-11T11:09:23;1.92;;;1.40;;
19038;SDS011;9652;49.014;12.052;2022-08-11T11:11:58;1.97;;;1.70;;
19038;SDS011;9652;49.014;12.052;2022-08-11T11:14:52;2.38;;;1.20;;
19038;SDS011;9652;49.014;12.052;2022-08-11T11:17:42;1.40;;;1.30;;
19038;SDS011;9652;49.014;12.052;2022-08-11T11:20:22;1.77;;;1.35;;
19038;SDS011;9652;49.014;12.052;2022-08-11T11:22:54;1.25;;;1.05;;
19038;SDS011;9652;49.014;12.052;2022-08-11T11:25:32;1.40;;;1.30;;
19038;SDS011;9652;49.014;12.052;2022-08-11T11:31:46;1.10;;;1.00;;
19038;SDS011;9652;49.014;12.052;2022-08-11T11:34:31;1.00;;;0.90;;
19038;SDS011;9652;49.014;12.052;2022-08-11T11:37:42;2.50;;;1.20;;
19038;SDS011;9652;49.014;12.052;2022-08-11T11:40:12;2.97;;;1.10;;
19038;SDS011;9652;49.014;12.052;2022-08-11T11:42:45;1.25;;;1.02;;
19038;SDS011;9652;49.014;12.052;2022-08-11T11:45:16;5.25;;;1.20;;
19038;SDS011;9652;49.014;12.052;2022-08-11T11:47:46;0.83;;;0.80;;
19038;SDS011;9652;49.014;12.052;2022-08-11T11:50:18;0.93;;;0.90;;
19038;SDS011;9652;49.014;12.052;2022-08-11T11:52:50;1.48;;;1.05;;
19038;SDS011;9652;49.014;12.052;2022-08-11T11:55:20;1.20;;;1.10;;
19038;SDS011;9652;49.014;12.052;2022-08-11T11:57:49;1.98;;;0.90;;
19038;SDS011;9652;49.014;12.052;2022-08-11T12:00:37;0.88;;;0.73;;
19038;SDS011;9652;49.014;12.052;2022-08-11T12:03:26;1.00;;;0.88;;
19038;SDS011;9652;49.014;12.052;2022-08-11T12:05:55;3.35;;;1.48;;
19038;SDS011;9652;49.014;12.052;2022-08-11T12:08:24;1.13;;;1.00;;
19038;SDS011;9652;49.014;12.052;2022-08-11T12:10:53;3.17;;;1.00;;
19038;SDS011;9652;49.014;12.052;2022-08-11T12:13:38;1.05;;;0.93;;
19038;SDS011;9652;49.014;12.052;2022-08-11T12:16:07;1.13;;;0.90;;
19038;SDS011;9652;49.014;12.052;2022-08-11T12:18:36;1.48;;;1.08;;
19038;SDS011;9652;49.014;12.052;2022-08-11T12:21:07;1.00;;;0.85;;
19038;SDS011;9652;49.014;12.052;2022-08-11T12:23:36;4.10;;;1.02;;
19038;SDS011;9652;49.014;12.052;2022-08-11T12:26:22;1.42;;;0.90;;
19038;SDS011;9652;49.014;12.052;2022-08-11T12:29:09;1.50;;;0.90;;
19038;SDS011;9652;49.014;12.052;2022-08-11T12:31:38;1.30;;;1.00;;
19038;SDS011;9652;49.014;12.052;2022-08-11T12:34:07;1.10;;;0.88;;
19038;SDS011;9652;49.014;12.052;2022-08-11T12:36:38;1.08;;;0.98;;
19038;SDS011;9652;49.014;12.052;2022-08-11T12:39:09;0.90;;;0.90;;
19038;SDS011;9652;49.014;12.052;2022-08-11T12:41:42;0.93;;;0.70;;
19038;SDS011;9652;49.014;12.052;2022-08-11T12:44:28;1.33;;;1.02;;
19038;SDS011;9652;49.014;12.052;2022-08-11T12:47:15;3.00;;;0.95;;
19038;SDS011;9652;49.014;12.052;2022-08-11T12:49:46;1.70;;;1.10;;
19038;SDS011;9652;49.014;12.052;2022-08-11T12:52:35;1.55;;;0.85;;
19038;SDS011;9652;49.014;12.052;2022-08-11T12:55:11;1.10;;;1.00;;
19038;SDS011;9652;49.014;12.052;2022-08-11T12:58:02;1.30;;;1.00;;
19038;SDS011;9652;49.014;12.052;2022-08-11T13:00:42;1.25;;;0.68;;
19038;SDS011;9652;49.014;12.052;2022-08-11T13:03:28;2.03;;;1.05;;
19038;SDS011;9652;49.014;12.052;2022-08-11T13:06:15;1.73;;;1.10;;
19038;SDS011;9652;49.014;12.052;2022-08-11T13:08:45;1.00;;;0.75;;
19038;SDS011;9652;49.014;12.052;2022-08-11T13:11:13;1.13;;;1.02;;
19038;SDS011;9652;49.014;12.052;2022-08-11T13:14:00;0.98;;;0.90;;
19038;SDS011;9652;49.014;12.052;2022-08-11T13:16:29;1.30;;;1.00;;
19038;SDS011;9652;49.014;12.052;2022-08-11T13:19:20;1.23;;;0.77;;
19038;SDS011;9652;49.014;12.052;2022-08-11T13:21:48;1.25;;;1.02;;
19038;SDS011;9652;49.014;12.052;2022-08-11T13:24:18;1.05;;;0.80;;
19038;SDS011;9652;49.014;12.052;2022-08-11T13:26:47;2.40;;;0.90;;
19038;SDS011;9652;49.014;12.052;2022-08-11T13:29:17;1.30;;;1.20;;
19038;SDS011;9652;49.014;12.052;2022-08-11T13:31:46;0.93;;;0.82;;
19038;SDS011;9652;49.014;12.052;2022-08-11T13:34:14;1.75;;;1.10;;
19038;SDS011;9652;49.014;12.052;2022-08-11T13:36:42;1.75;;;0.85;;
19038;SDS011;9652;49.014;12.052;2022-08-11T13:39:10;4.85;;;1.00;;
19038;SDS011;9652;49.014;12.052;2022-08-11T13:41:40;1.95;;;0.93;;
19038;SDS011;9652;49.014;12.052;2022-08-11T13:44:12;1.00;;;0.68;;
19038;SDS011;9652;49.014;12.052;2022-08-11T13:46:42;0.65;;;0.65;;
19038;SDS011;9652;49.014;12.052;2022-08-11T13:49:11;1.05;;;0.70;;
19038;SDS011;9652;49.014;12.052;2022-08-11T13:51:43;0.98;;;0.90;;
19038;SDS011;9652;49.014;12.052;2022-08-11T13:54:11;1.25;;;0.90;;
19038;SDS011;9652;49.014;12.052;2022-08-11T13:56:46;1.10;;;0.90;;
19038;SDS011;9652;49.014;12.052;2022-08-11T13:59:19;3.55;;;0.75;;
19038;SDS011;9652;49.014;12.052;2022-08-11T14:01:51;1.60;;;0.80;;
19038;SDS011;9652;49.014;12.052;2022-08-11T14:04:25;1.05;;;0.73;;
19038;SDS011;9652;49.014;12.052;2022-08-11T14:06:59;1.40;;;0.80;;
19038;SDS011;9652;49.014;12.052;2022-08-11T14:09:34;2.88;;;0.85;;
19038;SDS011;9652;49.014;12.052;2022-08-11T14:12:07;0.52;;;0.52;;
19038;SDS011;9652;49.014;12.052;2022-08-11T14:14:58;0.90;;;0.60;;
19038;SDS011;9652;49.014;12.052;2022-08-11T14:17:29;0.70;;;0.70;;
19038;SDS011;9652;49.014;12.052;2022-08-11T14:20:00;1.95;;;0.77;;
19038;SDS011;9652;49.014;12.052;2022-08-11T14:22:33;0.65;;;0.60;;
19038;SDS011;9652;49.014;12.052;2022-08-11T14:25:05;0.85;;;0.70;;
19038;SDS011;9652;49.014;12.052;2022-08-11T14:27:36;0.98;;;0.50;;
19038;SDS011;9652;49.014;12.052;2022-08-11T14:30:04;0.63;;;0.60;;
19038;SDS011;9652;49.014;12.052;2022-08-11T14:32:53;1.63;;;0.70;;
19038;SDS011;9652;49.014;12.052;2022-08-11T14:35:21;0.50;;;0.50;;
19038;SDS011;9652;49.014;12.052;2022-08-11T14:37:50;0.70;;;0.70;;
19038;SDS011;9652;49.014;12.052;2022-08-11T14:40:18;2.00;;;0.70;;
19038;SDS011;9652;49.014;12.052;2022-08-11T14:43:01;1.00;;;0.80;;
19038;SDS011;9652;49.014;12.052;2022-08-11T14:45:46;2.35;;;0.60;;
19038;SDS011;9652;49.014;12.052;2022-08-11T14:48:31;0.90;;;0.75;;
19038;SDS011;9652;49.014;12.052;2022-08-11T14:51:02;1.27;;;0.60;;
19038;SDS011;9652;49.014;12.052;2022-08-11T14:53:30;1.08;;;0.70;;
19038;SDS011;9652;49.014;12.052;2022-08-11T14:55:58;1.33;;;0.80;;
19038;SDS011;9652;49.014;12.052;2022-08-11T14:58:45;0.40;;;0.40;;
19038;SDS011;9652;49.014;12.052;2022-08-11T15:01:12;2.50;;;0.80;;
19038;SDS011;9652;49.014;12.052;2022-08-11T15:03:54;2.38;;;0.63;;
19038;SDS011;9652;49.014;12.052;2022-08-11T15:06:24;0.93;;;0.80;;
19038;SDS011;9652;49.014;12.052;2022-08-11T15:08:53;0.98;;;0.70;;
19038;SDS011;9652;49.014;12.052;2022-08-11T15:11:21;2.13;;;0.63;;
19038;SDS011;9652;49.014;12.052;2022-08-11T15:14:13;1.02;;;0.70;;
19038;SDS011;9652;49.014;12.052;2022-08-11T15:17:03;1.05;;;0.80;;
19038;SDS011;9652;49.014;12.052;2022-08-11T15:19:34;1.10;;;0.70;;
19038;SDS011;9652;49.014;12.052;2022-08-11T15:22:24;0.75;;;0.75;;
19038;SDS011;9652;49.014;12.052;2022-08-11T15:25:09;0.85;;;0.60;;
19038;SDS011;9652;49.014;12.052;2022-08-11T15:27:37;1.42;;;0.65;;
19038;SDS011;9652;49.014;12.052;2022-08-11T15:30:25;0.80;;;0.70;;
19038;SDS011;9652;49.014;12.052;2022-08-11T15:33:13;3.75;;;0.70;;
19038;SDS011;9652;49.014;12.052;2022-08-11T15:36:02;1.05;;;0.55;;
19038;SDS011;9652;49.014;12.052;2022-08-11T15:38:53;2.20;;;0.82;;
19038;SDS011;9652;49.014;12.052;2022-08-11T15:41:27;1.00;;;0.90;;
19038;SDS011;9652;49.014;12.052;2022-08-11T15:44:22;1.35;;;0.88;;
19038;SDS011;9652;49.014;12.052;2022-08-11T15:47:14;0.77;;;0.70;;
19038;SDS011;9652;49.014;12.052;2022-08-11T15:49:49;0.80;;;0.60;;
19038;SDS011;9652;49.014;12.052;2022-08-11T15:52:20;0.60;;;0.60;;
19038;SDS011;9652;49.014;12.052;2022-08-11T15:54:52;1.00;;;0.57;;
19038;SDS011;9652;49.014;12.052;2022-08-11T15:57:27;0.68;;;0.68;;
19038;SDS011;9652;49.014;12.052;2022-08-11T16:00:13;0.90;;;0.77;;
19038;SDS011;9652;49.014;12.052;2022-08-11T16:03:01;1.58;;;1.17;;
19038;SDS011;9652;49.014;12.052;2022-08-11T16:05:50;0.80;;;0.80;;
19038;SDS011;9652;49.014;12.052;2022-08-11T16:08:18;0.80;;;0.70;;
19038;SDS011;9652;49.014;12.052;2022-08-11T16:10:49;1.88;;;1.00;;
19038;SDS011;9652;49.014;12.052;2022-08-11T16:13:20;2.90;;;1.10;;
19038;SDS011;9652;49.014;12.052;2022-08-11T16:16:09;1.63;;;1.02;;
19038;SDS011;9652;49.014;12.052;2022-08-11T16:18:44;1.52;;;1.00;;
19038;SDS011;9652;49.014;12.052;2022-08-11T16:21:18;2.22;;;0.80;;
19038;SDS011;9652;49.014;12.052;2022-08-11T16:23:50;1.00;;;0.90;;
19038;SDS011;9652;49.014;12.052;2022-08-11T16:26:20;1.40;;;1.00;;
19038;SDS011;9652;49.014;12.052;2022-08-11T16:28:50;2.08;;;0.80;;
19038;SDS011;9652;49.014;12.052;2022-08-11T16:31:21;1.15;;;1.00;;
19038;SDS011;9652;49.014;12.052;2022-08-11T16:33:51;1.77;;;0.98;;
19038;SDS011;9652;49.014;12.052;2022-08-11T16:36:21;2.58;;;1.25;;
19038;SDS011;9652;49.014;12.052;2022-08-11T16:39:20;4.38;;;1.20;;
19038;SDS011;9652;49.014;12.052;2022-08-11T16:41:47;1.55;;;1.10;;
19038;SDS011;9652;49.014;12.052;2022-08-11T16:44:34;1.60;;;1.00;;
19038;SDS011;9652;49.014;12.052;2022-08-11T16:47:20;1.08;;;0.93;;
19038;SDS011;9652;49.014;12.052;2022-08-11T16:49:52;3.55;;;1.48;;
19038;SDS011;9652;49.014;12.052;2022-08-11T16:52:21;2.72;;;1.33;;
19038;SDS011;9652;49.014;12.052;2022-08-11T16:54:49;2.38;;;1.40;;
19038;SDS011;9652;49.014;12.052;2022-08-11T16:57:17;1.00;;;0.88;;
19038;SDS011;9652;49.014;12.052;2022-08-11T17:00:07;2.00;;;1.23;;
19038;SDS011;9652;49.014;12.052;2022-08-11T17:02:39;1.50;;;1.00;;